SUD1A UTDD-VILH
Flight info
| Callsign | SUD1A |
|---|---|
| Flight time | 1h 13m |
| Altitude | 37000 |
| Route | JD1A JD A238 RAMAN DCT MOTMO DCT GT DCT LEH |
| Aircraft | A320/M-SDFGHILORVWY/S |
Departure
| Time | 2026-04-22 06:09 |
|---|---|
| Airport | Dushanbe International Airport (UTDD) |
Arrival
| Time | 2026-04-22 07:23 |
|---|---|
| Airport | Leh Kushok Bakula Rimpochee Airport (VILH) |
| Time | Latitude | Longitude | Altitude | Speed | Heading |
|---|---|---|---|---|---|
| 2026-04-22 05:59 | 38.54740 | 68.82801 | 2575 ft | 0 kts | 227° |
| 2026-04-22 06:05 | 38.54697 | 68.82781 | 2580 ft | 10 kts | 155° |
| 2026-04-22 06:05 | 38.54687 | 68.82887 | 2582 ft | 15 kts | 90° |
| 2026-04-22 06:05 | 38.54687 | 68.83039 | 2580 ft | 19 kts | 90° |
| 2026-04-22 06:05 | 38.54686 | 68.83217 | 2579 ft | 18 kts | 90° |
| 2026-04-22 06:06 | 38.54612 | 68.83291 | 2579 ft | 17 kts | 179° |
| 2026-04-22 06:06 | 38.54483 | 68.83290 | 2582 ft | 20 kts | 180° |
| 2026-04-22 06:06 | 38.54373 | 68.83328 | 2581 ft | 16 kts | 119° |
| 2026-04-22 06:06 | 38.54366 | 68.83478 | 2582 ft | 19 kts | 90° |
| 2026-04-22 06:07 | 38.54365 | 68.83659 | 2582 ft | 22 kts | 90° |
| 2026-04-22 06:07 | 38.54366 | 68.83858 | 2582 ft | 24 kts | 90° |
| 2026-04-22 06:07 | 38.54364 | 68.84061 | 2582 ft | 19 kts | 90° |
| 2026-04-22 06:07 | 38.54372 | 68.84190 | 2580 ft | 12 kts | 22° |
| 2026-04-22 06:08 | 38.54368 | 68.84115 | 2582 ft | 12 kts | 245° |
| 2026-04-22 06:08 | 38.54364 | 68.84002 | 2580 ft | 14 kts | 270° |
| 2026-04-22 06:08 | 38.54364 | 68.83854 | 2582 ft | 24 kts | 270° |
| 2026-04-22 06:08 | 38.54364 | 68.83398 | 2583 ft | 87 kts | 270° |
| 2026-04-22 06:09 | 38.54369 | 68.82344 | 2580 ft | 147 kts | 270° |
| 2026-04-22 06:09 | 38.54372 | 68.80840 | 2725 ft | 181 kts | 269° |
| 2026-04-22 06:09 | 38.54384 | 68.79263 | 3469 ft | 177 kts | 270° |
| 2026-04-22 06:09 | 38.54367 | 68.77697 | 4203 ft | 177 kts | 262° |
| 2026-04-22 06:10 | 38.53821 | 68.76233 | 4526 ft | 196 kts | 224° |
| 2026-04-22 06:10 | 38.52567 | 68.75360 | 4743 ft | 221 kts | 189° |
| 2026-04-22 06:10 | 38.50989 | 68.75598 | 5055 ft | 244 kts | 153° |
| 2026-04-22 06:10 | 38.49733 | 68.77147 | 5436 ft | 267 kts | 116° |
| 2026-04-22 06:11 | 38.49320 | 68.79499 | 6075 ft | 279 kts | 90° |
| 2026-04-22 06:11 | 38.49436 | 68.81988 | 6882 ft | 284 kts | 82° |
| 2026-04-22 06:11 | 38.49755 | 68.84504 | 7691 ft | 290 kts | 80° |
| 2026-04-22 06:11 | 38.50101 | 68.87066 | 8499 ft | 295 kts | 86° |
| 2026-04-22 06:12 | 38.49913 | 68.89667 | 9304 ft | 297 kts | 110° |
| 2026-04-22 06:12 | 38.48970 | 68.91985 | 10072 ft | 296 kts | 128° |
| 2026-04-22 06:12 | 38.47729 | 68.94212 | 10325 ft | 319 kts | 129° |
| 2026-04-22 06:12 | 38.46379 | 68.96598 | 10558 ft | 343 kts | 129° |
| 2026-04-22 06:13 | 38.44961 | 68.99103 | 11098 ft | 353 kts | 129° |
| 2026-04-22 06:13 | 38.43519 | 69.01662 | 11811 ft | 358 kts | 129° |
| 2026-04-22 06:13 | 38.42064 | 69.04258 | 12566 ft | 362 kts | 129° |
| 2026-04-22 06:13 | 38.40598 | 69.06887 | 13344 ft | 366 kts | 130° |
| 2026-04-22 06:14 | 38.39139 | 69.09506 | 14047 ft | 369 kts | 130° |
| 2026-04-22 06:14 | 38.37623 | 69.12218 | 14695 ft | 373 kts | 130° |
| 2026-04-22 06:14 | 38.36109 | 69.14918 | 15363 ft | 376 kts | 130° |
| 2026-04-22 06:14 | 38.34603 | 69.17602 | 16014 ft | 378 kts | 131° |
| 2026-04-22 06:15 | 38.33067 | 69.20340 | 16650 ft | 382 kts | 131° |
| 2026-04-22 06:15 | 38.31512 | 69.23101 | 17275 ft | 385 kts | 130° |
| 2026-04-22 06:15 | 38.29941 | 69.25887 | 17889 ft | 390 kts | 131° |
| 2026-04-22 06:15 | 38.28295 | 69.28642 | 18477 ft | 390 kts | 138° |
| 2026-04-22 06:16 | 38.26245 | 69.30852 | 19010 ft | 386 kts | 148° |
| 2026-04-22 06:16 | 38.24067 | 69.32887 | 19532 ft | 390 kts | 149° |
| 2026-04-22 06:16 | 38.21863 | 69.34929 | 20067 ft | 394 kts | 149° |
| 2026-04-22 06:16 | 38.19629 | 69.36987 | 20597 ft | 399 kts | 149° |
| 2026-04-22 06:17 | 38.17370 | 69.39068 | 21084 ft | 403 kts | 149° |
| 2026-04-22 06:17 | 38.15833 | 69.40483 | 21455 ft | 405 kts | 149° |
| 2026-04-22 06:17 | 38.13538 | 69.42594 | 21958 ft | 409 kts | 149° |
| 2026-04-22 06:17 | 38.11253 | 69.44694 | 22426 ft | 413 kts | 149° |
| 2026-04-22 06:18 | 38.08915 | 69.46841 | 22877 ft | 417 kts | 149° |
| 2026-04-22 06:18 | 38.06553 | 69.49014 | 23337 ft | 421 kts | 149° |
| 2026-04-22 06:18 | 38.04170 | 69.51203 | 23729 ft | 425 kts | 149° |
| 2026-04-22 06:18 | 38.01768 | 69.53407 | 24104 ft | 428 kts | 149° |
| 2026-04-22 06:19 | 37.99350 | 69.55629 | 24465 ft | 431 kts | 149° |
| 2026-04-22 06:19 | 37.96916 | 69.57867 | 24813 ft | 434 kts | 149° |
| 2026-04-22 06:19 | 37.94465 | 69.60121 | 25159 ft | 436 kts | 149° |
| 2026-04-22 06:19 | 37.92001 | 69.62379 | 25529 ft | 439 kts | 149° |
| 2026-04-22 06:20 | 37.89522 | 69.64648 | 25894 ft | 441 kts | 149° |
| 2026-04-22 06:20 | 37.87024 | 69.66927 | 26257 ft | 444 kts | 149° |
| 2026-04-22 06:20 | 37.84513 | 69.69215 | 26603 ft | 446 kts | 149° |
| 2026-04-22 06:20 | 37.81988 | 69.71516 | 26943 ft | 449 kts | 149° |
| 2026-04-22 06:21 | 37.79449 | 69.73828 | 27279 ft | 451 kts | 149° |
| 2026-04-22 06:21 | 37.76897 | 69.76153 | 27595 ft | 453 kts | 149° |
| 2026-04-22 06:21 | 37.74333 | 69.78490 | 27930 ft | 456 kts | 149° |
| 2026-04-22 06:21 | 37.71756 | 69.80841 | 28252 ft | 458 kts | 149° |
| 2026-04-22 06:22 | 37.69165 | 69.83199 | 28559 ft | 460 kts | 149° |
| 2026-04-22 06:22 | 37.66558 | 69.85561 | 28833 ft | 462 kts | 149° |
| 2026-04-22 06:22 | 37.63938 | 69.87930 | 29111 ft | 465 kts | 149° |
| 2026-04-22 06:22 | 37.61435 | 69.90564 | 29366 ft | 474 kts | 140° |
| 2026-04-22 06:23 | 37.59248 | 69.93719 | 29602 ft | 480 kts | 133° |
| 2026-04-22 06:23 | 37.57146 | 69.97000 | 29867 ft | 482 kts | 133° |
| 2026-04-22 06:23 | 37.55025 | 70.00283 | 30102 ft | 484 kts | 134° |
| 2026-04-22 06:23 | 37.52897 | 70.03560 | 30421 ft | 482 kts | 134° |
| 2026-04-22 06:24 | 37.48651 | 70.10088 | 30950 ft | 482 kts | 134° |
| 2026-04-22 06:24 | 37.46525 | 70.13354 | 31234 ft | 482 kts | 134° |
| 2026-04-22 06:24 | 37.44400 | 70.16612 | 31504 ft | 482 kts | 134° |
| 2026-04-22 06:25 | 37.42272 | 70.19869 | 31775 ft | 481 kts | 134° |
| 2026-04-22 06:25 | 37.40145 | 70.23116 | 32055 ft | 481 kts | 134° |
| 2026-04-22 06:25 | 37.38018 | 70.26361 | 32348 ft | 481 kts | 134° |
| 2026-04-22 06:25 | 37.35892 | 70.29609 | 32651 ft | 480 kts | 134° |
| 2026-04-22 06:26 | 37.33772 | 70.32853 | 32943 ft | 480 kts | 134° |
| 2026-04-22 06:26 | 37.31655 | 70.36091 | 33253 ft | 479 kts | 134° |
| 2026-04-22 06:26 | 37.29536 | 70.39326 | 33563 ft | 479 kts | 134° |
| 2026-04-22 06:26 | 37.27417 | 70.42547 | 33855 ft | 479 kts | 134° |
| 2026-04-22 06:27 | 37.25297 | 70.45766 | 34127 ft | 478 kts | 134° |
| 2026-04-22 06:27 | 37.23178 | 70.48982 | 34404 ft | 478 kts | 134° |
| 2026-04-22 06:27 | 37.21061 | 70.52193 | 34661 ft | 478 kts | 134° |
| 2026-04-22 06:27 | 37.18946 | 70.55403 | 34891 ft | 478 kts | 134° |
| 2026-04-22 06:28 | 37.16822 | 70.58624 | 35063 ft | 480 kts | 134° |
| 2026-04-22 06:28 | 37.14693 | 70.61851 | 35290 ft | 481 kts | 134° |
| 2026-04-22 06:28 | 37.12561 | 70.65080 | 35505 ft | 481 kts | 134° |
| 2026-04-22 06:28 | 37.10426 | 70.68309 | 35745 ft | 481 kts | 135° |
| 2026-04-22 06:29 | 37.08291 | 70.71531 | 35952 ft | 481 kts | 134° |
| 2026-04-22 06:29 | 37.06407 | 70.75014 | 36161 ft | 488 kts | 119° |
| 2026-04-22 06:29 | 37.05106 | 70.78961 | 36306 ft | 491 kts | 114° |
| 2026-04-22 06:29 | 37.03899 | 70.82956 | 36543 ft | 490 kts | 113° |
| 2026-04-22 06:30 | 37.02702 | 70.86954 | 36717 ft | 490 kts | 114° |
| 2026-04-22 06:30 | 37.01510 | 70.90953 | 36921 ft | 491 kts | 113° |
| 2026-04-22 06:30 | 37.00313 | 70.94956 | 36959 ft | 492 kts | 113° |
| 2026-04-22 06:31 | 36.97911 | 71.02977 | 36986 ft | 492 kts | 113° |
| 2026-04-22 06:31 | 36.95485 | 71.10987 | 36989 ft | 493 kts | 114° |
| 2026-04-22 06:32 | 36.93046 | 71.18978 | 37012 ft | 492 kts | 114° |
| 2026-04-22 06:32 | 36.90611 | 71.26977 | 37015 ft | 493 kts | 113° |
| 2026-04-22 06:33 | 36.88172 | 71.34994 | 37061 ft | 494 kts | 114° |
| 2026-04-22 06:33 | 36.85721 | 71.42999 | 37042 ft | 493 kts | 114° |
| 2026-04-22 06:34 | 36.83267 | 71.50974 | 37059 ft | 492 kts | 114° |
| 2026-04-22 06:34 | 36.80818 | 71.58896 | 37078 ft | 492 kts | 114° |
| 2026-04-22 06:35 | 36.78362 | 71.66862 | 37083 ft | 492 kts | 113° |
| 2026-04-22 06:35 | 36.75913 | 71.74812 | 37106 ft | 490 kts | 113° |
| 2026-04-22 06:36 | 36.73450 | 71.82750 | 37128 ft | 491 kts | 113° |
| 2026-04-22 06:36 | 36.70980 | 71.90676 | 37140 ft | 490 kts | 114° |
| 2026-04-22 06:37 | 36.68509 | 71.98587 | 37166 ft | 490 kts | 113° |
| 2026-04-22 06:37 | 36.66033 | 72.06487 | 37167 ft | 489 kts | 113° |
| 2026-04-22 06:38 | 36.63549 | 72.14367 | 37181 ft | 489 kts | 113° |
| 2026-04-22 06:38 | 36.61066 | 72.22242 | 37180 ft | 489 kts | 113° |
| 2026-04-22 06:39 | 36.58591 | 72.30110 | 37168 ft | 488 kts | 112° |
| 2026-04-22 06:39 | 36.56112 | 72.37948 | 37166 ft | 485 kts | 112° |
| 2026-04-22 06:40 | 36.53632 | 72.45760 | 37182 ft | 486 kts | 112° |
| 2026-04-22 06:40 | 36.51167 | 72.53521 | 37176 ft | 486 kts | 112° |
| 2026-04-22 06:41 | 36.48661 | 72.61372 | 37175 ft | 486 kts | 113° |
| 2026-04-22 06:41 | 36.46167 | 72.69151 | 37177 ft | 484 kts | 113° |
| 2026-04-22 06:42 | 36.43689 | 72.76883 | 37156 ft | 485 kts | 112° |
| 2026-04-22 06:42 | 36.41175 | 72.84705 | 37183 ft | 485 kts | 112° |
| 2026-04-22 06:43 | 36.38680 | 72.92425 | 37182 ft | 485 kts | 113° |
| 2026-04-22 06:43 | 36.36179 | 73.00193 | 37181 ft | 485 kts | 112° |
| 2026-04-22 06:44 | 36.33645 | 73.08012 | 37174 ft | 485 kts | 113° |
| 2026-04-22 06:44 | 36.31126 | 73.15731 | 37172 ft | 487 kts | 113° |
| 2026-04-22 06:45 | 36.28590 | 73.23493 | 37160 ft | 485 kts | 113° |
| 2026-04-22 06:45 | 36.26057 | 73.31241 | 37147 ft | 484 kts | 113° |
| 2026-04-22 06:46 | 36.23531 | 73.38960 | 37184 ft | 484 kts | 113° |
| 2026-04-22 06:46 | 36.20986 | 73.46695 | 37201 ft | 485 kts | 113° |
| 2026-04-22 06:47 | 36.18443 | 73.54419 | 37176 ft | 484 kts | 113° |
| 2026-04-22 06:47 | 36.15901 | 73.62152 | 37216 ft | 485 kts | 113° |
| 2026-04-22 06:48 | 36.13343 | 73.69878 | 37198 ft | 486 kts | 113° |
| 2026-04-22 06:48 | 36.10775 | 73.77591 | 37210 ft | 484 kts | 113° |
| 2026-04-22 06:49 | 36.08213 | 73.85292 | 37239 ft | 485 kts | 113° |
| 2026-04-22 06:49 | 36.05650 | 73.92973 | 37217 ft | 482 kts | 113° |
| 2026-04-22 06:50 | 36.03096 | 74.00616 | 37200 ft | 481 kts | 113° |
| 2026-04-22 06:50 | 36.00533 | 74.08249 | 37183 ft | 481 kts | 113° |
| 2026-04-22 06:51 | 35.97972 | 74.15853 | 37157 ft | 480 kts | 113° |
| 2026-04-22 06:51 | 35.95414 | 74.23464 | 37164 ft | 481 kts | 114° |
| 2026-04-22 06:52 | 35.92840 | 74.31078 | 37172 ft | 481 kts | 114° |
| 2026-04-22 06:52 | 35.89524 | 74.38198 | 37173 ft | 479 kts | 125° |
| 2026-04-22 06:53 | 35.85858 | 74.45050 | 37162 ft | 479 kts | 125° |
| 2026-04-22 06:53 | 35.82190 | 74.51907 | 37156 ft | 479 kts | 124° |
| 2026-04-22 06:54 | 35.78551 | 74.58725 | 37166 ft | 480 kts | 125° |
| 2026-04-22 06:54 | 35.74877 | 74.65579 | 37176 ft | 479 kts | 124° |
| 2026-04-22 06:55 | 35.71199 | 74.72414 | 37195 ft | 478 kts | 125° |
| 2026-04-22 06:55 | 35.67525 | 74.79229 | 37223 ft | 477 kts | 125° |
| 2026-04-22 06:56 | 35.63850 | 74.86022 | 37232 ft | 478 kts | 125° |
| 2026-04-22 06:56 | 35.60172 | 74.92813 | 37237 ft | 477 kts | 125° |
| 2026-04-22 06:57 | 35.56496 | 74.99599 | 37229 ft | 477 kts | 125° |
| 2026-04-22 06:57 | 35.52815 | 75.06373 | 37238 ft | 477 kts | 125° |
| 2026-04-22 06:58 | 35.49125 | 75.13147 | 37260 ft | 478 kts | 125° |
| 2026-04-22 06:58 | 35.45432 | 75.19928 | 37259 ft | 478 kts | 124° |
| 2026-04-22 06:59 | 35.41732 | 75.26712 | 37262 ft | 479 kts | 125° |
| 2026-04-22 06:59 | 35.38027 | 75.33482 | 37265 ft | 477 kts | 125° |
| 2026-04-22 07:00 | 35.34324 | 75.40235 | 37263 ft | 478 kts | 125° |
| 2026-04-22 07:00 | 35.30613 | 75.46987 | 37265 ft | 477 kts | 124° |
| 2026-04-22 07:01 | 35.26903 | 75.53718 | 37267 ft | 477 kts | 124° |
| 2026-04-22 07:01 | 35.23185 | 75.60453 | 37261 ft | 477 kts | 125° |
| 2026-04-22 07:02 | 35.19479 | 75.67168 | 37253 ft | 477 kts | 125° |
| 2026-04-22 07:02 | 35.16390 | 75.72745 | 37255 ft | 477 kts | 125° |
| 2026-04-22 07:03 | 35.12681 | 75.79445 | 37247 ft | 476 kts | 124° |
| 2026-04-22 07:03 | 35.08973 | 75.86128 | 37246 ft | 476 kts | 124° |
| 2026-04-22 07:04 | 35.05255 | 75.92804 | 37222 ft | 475 kts | 124° |
| 2026-04-22 07:04 | 35.01533 | 75.99472 | 37223 ft | 475 kts | 124° |
| 2026-04-22 07:05 | 34.97812 | 76.06129 | 37225 ft | 474 kts | 124° |
| 2026-04-22 07:05 | 34.94092 | 76.12768 | 37205 ft | 475 kts | 124° |
| 2026-04-22 07:06 | 34.90375 | 76.19407 | 37204 ft | 474 kts | 124° |
| 2026-04-22 07:06 | 34.86652 | 76.26038 | 37193 ft | 474 kts | 124° |
| 2026-04-22 07:07 | 34.82916 | 76.32655 | 37194 ft | 474 kts | 124° |
| 2026-04-22 07:07 | 34.79171 | 76.39274 | 37199 ft | 475 kts | 124° |
| 2026-04-22 07:08 | 34.75438 | 76.45901 | 37187 ft | 475 kts | 124° |
| 2026-04-22 07:08 | 34.71693 | 76.52527 | 37203 ft | 475 kts | 124° |
| 2026-04-22 07:09 | 34.67938 | 76.59137 | 37186 ft | 475 kts | 124° |
| 2026-04-22 07:09 | 34.64172 | 76.65748 | 36346 ft | 480 kts | 124° |
| 2026-04-22 07:09 | 34.62264 | 76.69100 | 35310 ft | 484 kts | 124° |
| 2026-04-22 07:10 | 34.60357 | 76.72456 | 33969 ft | 482 kts | 124° |
| 2026-04-22 07:10 | 34.58450 | 76.75813 | 32236 ft | 485 kts | 125° |
| 2026-04-22 07:10 | 34.56509 | 76.79222 | 30746 ft | 496 kts | 126° |
| 2026-04-22 07:10 | 34.54546 | 76.82662 | 29624 ft | 496 kts | 126° |
| 2026-04-22 07:11 | 34.52593 | 76.86077 | 28959 ft | 486 kts | 126° |
| 2026-04-22 07:11 | 34.50681 | 76.89415 | 28224 ft | 479 kts | 126° |
| 2026-04-22 07:11 | 34.48786 | 76.92719 | 27472 ft | 474 kts | 126° |
| 2026-04-22 07:11 | 34.46915 | 76.95980 | 26764 ft | 469 kts | 126° |
| 2026-04-22 07:12 | 34.45059 | 76.99214 | 26048 ft | 465 kts | 126° |
| 2026-04-22 07:12 | 34.43220 | 77.02417 | 25333 ft | 460 kts | 127° |
| 2026-04-22 07:12 | 34.41396 | 77.05593 | 24630 ft | 458 kts | 127° |
| 2026-04-22 07:12 | 34.39584 | 77.08744 | 23955 ft | 455 kts | 127° |
| 2026-04-22 07:13 | 34.37801 | 77.11839 | 23213 ft | 453 kts | 127° |
| 2026-04-22 07:13 | 34.35990 | 77.14977 | 22103 ft | 457 kts | 127° |
| 2026-04-22 07:13 | 34.34163 | 77.18142 | 21713 ft | 443 kts | 127° |
| 2026-04-22 07:13 | 34.32487 | 77.21052 | 21585 ft | 413 kts | 127° |
| 2026-04-22 07:14 | 34.30881 | 77.23841 | 20863 ft | 401 kts | 127° |
| 2026-04-22 07:14 | 34.29287 | 77.26597 | 19998 ft | 397 kts | 126° |
| 2026-04-22 07:14 | 34.27736 | 77.29277 | 19546 ft | 381 kts | 126° |
| 2026-04-22 07:14 | 34.26244 | 77.31851 | 19101 ft | 367 kts | 127° |
| 2026-04-22 07:15 | 34.24800 | 77.34335 | 18678 ft | 355 kts | 126° |
| 2026-04-22 07:15 | 34.23405 | 77.36737 | 18209 ft | 343 kts | 126° |
| 2026-04-22 07:15 | 34.22055 | 77.39060 | 17782 ft | 332 kts | 126° |
| 2026-04-22 07:15 | 34.20749 | 77.41309 | 17371 ft | 323 kts | 126° |
| 2026-04-22 07:16 | 34.19478 | 77.43495 | 16969 ft | 313 kts | 126° |
| 2026-04-22 07:16 | 34.18241 | 77.45617 | 16556 ft | 304 kts | 126° |
| 2026-04-22 07:16 | 34.17061 | 77.47642 | 16141 ft | 284 kts | 126° |
| 2026-04-22 07:16 | 34.15957 | 77.49538 | 15765 ft | 270 kts | 126° |
| 2026-04-22 07:17 | 34.14892 | 77.51361 | 15386 ft | 261 kts | 126° |
| 2026-04-22 07:17 | 34.14008 | 77.53226 | 15014 ft | 252 kts | 108° |
| 2026-04-22 07:17 | 34.13783 | 77.55256 | 14689 ft | 239 kts | 85° |
| 2026-04-22 07:17 | 34.14177 | 77.57153 | 14301 ft | 229 kts | 69° |
| 2026-04-22 07:18 | 34.14468 | 77.58988 | 13963 ft | 218 kts | 97° |
| 2026-04-22 07:18 | 34.13901 | 77.60570 | 13767 ft | 200 kts | 135° |
| 2026-04-22 07:18 | 34.12902 | 77.61660 | 13533 ft | 190 kts | 143° |
| 2026-04-22 07:18 | 34.11874 | 77.62617 | 13299 ft | 184 kts | 149° |
| 2026-04-22 07:19 | 34.10754 | 77.63255 | 13179 ft | 175 kts | 172° |
| 2026-04-22 07:19 | 34.09571 | 77.63323 | 13091 ft | 166 kts | 204° |
| 2026-04-22 07:19 | 34.08724 | 77.62500 | 13033 ft | 156 kts | 245° |
| 2026-04-22 07:19 | 34.08600 | 77.61222 | 12824 ft | 158 kts | 288° |
| 2026-04-22 07:20 | 34.09289 | 77.60244 | 12578 ft | 161 kts | 330° |
| 2026-04-22 07:20 | 34.10394 | 77.60028 | 12362 ft | 166 kts | 7° |
| 2026-04-22 07:20 | 34.11435 | 77.60688 | 12253 ft | 169 kts | 36° |
| 2026-04-22 07:20 | 34.12376 | 77.61508 | 12512 ft | 167 kts | 27° |
| 2026-04-22 07:21 | 34.13434 | 77.61935 | 12842 ft | 159 kts | 356° |
| 2026-04-22 07:21 | 34.14477 | 77.61522 | 12965 ft | 158 kts | 318° |
| 2026-04-22 07:21 | 34.15055 | 77.60446 | 13023 ft | 159 kts | 281° |
| 2026-04-22 07:21 | 34.14870 | 77.59080 | 12443 ft | 178 kts | 250° |
| 2026-04-22 07:22 | 34.14417 | 77.57581 | 11451 ft | 197 kts | 255° |
| 2026-04-22 07:22 | 34.14003 | 77.56016 | 10893 ft | 189 kts | 252° |
| 2026-04-22 07:22 | 34.13602 | 77.54624 | 10670 ft | 163 kts | 251° |
| 2026-04-22 07:22 | 34.13348 | 77.53755 | 10625 ft | 56 kts | 251° |
| 2026-04-22 07:23 | 34.13228 | 77.53340 | 10613 ft | 52 kts | 251° |
| 2026-04-22 07:23 | 34.13170 | 77.53094 | 10610 ft | 18 kts | 243° |
| 2026-04-22 07:23 | 34.13102 | 77.52951 | 10609 ft | 20 kts | 248° |
| 2026-04-22 07:23 | 34.13075 | 77.52815 | 10607 ft | 8 kts | 299° |
| 2026-04-22 07:24 | 34.13069 | 77.52797 | 10609 ft | 1 kts | 145° |
| 2026-04-22 07:24 | 34.13076 | 77.52826 | 10611 ft | 21 kts | 71° |
| 2026-04-22 07:24 | 34.13222 | 77.53316 | 10613 ft | 101 kts | 71° |
| 2026-04-22 07:24 | 34.13524 | 77.54360 | 10652 ft | 159 kts | 71° |
| 2026-04-22 07:25 | 34.13915 | 77.55752 | 11018 ft | 186 kts | 77° |
| 2026-04-22 07:25 | 34.13399 | 77.57092 | 11747 ft | 189 kts | 149° |
| 2026-04-22 07:25 | 34.12536 | 77.58341 | 11992 ft | 213 kts | 90° |
| 2026-04-22 07:25 | 34.13335 | 77.59654 | 12447 ft | 206 kts | 14° |
| 2026-04-22 07:26 | 34.14697 | 77.59242 | 12423 ft | 214 kts | 313° |
| 2026-04-22 07:26 | 34.14974 | 77.57652 | 11721 ft | 202 kts | 233° |
| 2026-04-22 07:26 | 34.14132 | 77.56316 | 10982 ft | 199 kts | 235° |
| 2026-04-22 07:26 | 34.13689 | 77.54922 | 10720 ft | 137 kts | 251° |
| 2026-04-22 07:27 | 34.13479 | 77.54169 | 10640 ft | 52 kts | 251° |
| 2026-04-22 07:27 | 38.54740 | 68.82801 | 2576 ft | 0 kts | 227° |
| 2026-04-22 07:40 | 38.54738 | 68.82799 | 2582 ft | 2 kts | 227° |
| 2026-04-22 07:40 | 38.54735 | 68.82794 | 2582 ft | 0 kts | 227° |
| 2026-04-22 07:42 | 38.54729 | 68.82787 | 2576 ft | 5 kts | 224° |
| 2026-04-22 07:42 | 38.54689 | 68.82805 | 2580 ft | 7 kts | 110° |
| 2026-04-22 07:42 | 38.54687 | 68.82865 | 2576 ft | 10 kts | 89° |
| 2026-04-22 07:42 | 38.54687 | 68.82998 | 2576 ft | 16 kts | 90° |
| 2026-04-22 07:43 | 38.54687 | 68.83130 | 2580 ft | 14 kts | 90° |
| 2026-04-22 07:43 | 38.54686 | 68.83242 | 2578 ft | 11 kts | 92° |
| 2026-04-22 07:43 | 38.54645 | 68.83289 | 2578 ft | 7 kts | 178° |
| 2026-04-22 07:43 | 38.54591 | 68.83290 | 2578 ft | 12 kts | 179° |
| 2026-04-22 07:44 | 38.54507 | 68.83290 | 2579 ft | 10 kts | 180° |
| 2026-04-22 07:44 | 38.54458 | 68.83290 | 2578 ft | 4 kts | 180° |
| 2026-04-22 07:44 | 38.54449 | 68.83290 | 2580 ft | 0 kts | 180° |
| 2026-04-22 07:45 | 38.54444 | 68.83290 | 2578 ft | 0 kts | 180° |
| 2026-04-22 07:45 | 38.54406 | 68.83290 | 2578 ft | 7 kts | 180° |
| 2026-04-22 07:45 | 38.54382 | 68.83288 | 2581 ft | 1 kts | 198° |
| 2026-04-22 07:46 | 38.54366 | 68.83244 | 2577 ft | 27 kts | 258° |
| 2026-04-22 07:46 | 38.54368 | 68.82661 | 2580 ft | 100 kts | 270° |
| 2026-04-22 07:46 | 38.54370 | 68.81517 | 2578 ft | 156 kts | 270° |
| 2026-04-22 07:46 | 38.54385 | 68.80016 | 2934 ft | 173 kts | 271° |
| 2026-04-22 07:47 | 38.54399 | 68.78476 | 3655 ft | 173 kts | 271° |
| 2026-04-22 07:47 | 38.54404 | 68.76935 | 4355 ft | 176 kts | 270° |
| 2026-04-22 07:47 | 38.54409 | 68.75282 | 4721 ft | 197 kts | 271° |
| 2026-04-22 07:47 | 38.54415 | 68.73434 | 4995 ft | 219 kts | 271° |
| 2026-04-22 07:48 | 38.54417 | 68.71399 | 5289 ft | 245 kts | 270° |
| 2026-04-22 07:48 | 38.54417 | 68.69082 | 5735 ft | 269 kts | 271° |
| 2026-04-22 07:48 | 38.54416 | 68.66653 | 6522 ft | 276 kts | 270° |
| 2026-04-22 07:48 | 38.54416 | 68.64186 | 7453 ft | 278 kts | 269° |
| 2026-04-22 07:49 | 38.54249 | 68.61741 | 8419 ft | 277 kts | 253° |
| 2026-04-22 07:49 | 38.53379 | 68.59568 | 9422 ft | 276 kts | 230° |
| 2026-04-22 07:49 | 38.51905 | 68.58022 | 10316 ft | 280 kts | 210° |
| 2026-04-22 07:49 | 38.49952 | 68.57305 | 10627 ft | 309 kts | 186° |
| 2026-04-22 07:50 | 38.47722 | 68.57283 | 10948 ft | 330 kts | 182° |
| 2026-04-22 07:50 | 38.45397 | 68.57304 | 11632 ft | 336 kts | 183° |
| 2026-04-22 07:50 | 38.43062 | 68.57330 | 12491 ft | 336 kts | 183° |
| 2026-04-22 07:50 | 38.40717 | 68.57363 | 13333 ft | 339 kts | 180° |
| 2026-04-22 07:51 | 38.38399 | 68.58031 | 14055 ft | 350 kts | 161° |
| 2026-04-22 07:51 | 38.36353 | 68.59812 | 14650 ft | 367 kts | 140° |
| 2026-04-22 07:51 | 38.34930 | 68.62566 | 14873 ft | 382 kts | 115° |
| 2026-04-22 07:51 | 38.34459 | 68.65932 | 14927 ft | 392 kts | 96° |
| 2026-04-22 07:52 | 38.34426 | 68.69418 | 14928 ft | 394 kts | 94° |
| 2026-04-22 07:52 | 38.34449 | 68.72868 | 14930 ft | 395 kts | 93° |
| 2026-04-22 07:52 | 38.34491 | 68.76409 | 14929 ft | 394 kts | 93° |
| 2026-04-22 07:52 | 38.34545 | 68.79900 | 14929 ft | 395 kts | 90° |
| 2026-04-22 07:53 | 38.34947 | 68.83329 | 14932 ft | 399 kts | 79° |
| 2026-04-22 07:53 | 38.35854 | 68.86686 | 14926 ft | 403 kts | 68° |
| 2026-04-22 07:53 | 38.37139 | 68.89874 | 14936 ft | 405 kts | 64° |
| 2026-04-22 07:53 | 38.38462 | 68.93049 | 14933 ft | 405 kts | 64° |
| 2026-04-22 07:54 | 38.39790 | 68.96217 | 14937 ft | 406 kts | 64° |
| 2026-04-22 07:54 | 38.41122 | 68.99393 | 14939 ft | 406 kts | 64° |
| 2026-04-22 07:54 | 38.42450 | 69.02571 | 14937 ft | 406 kts | 64° |
| 2026-04-22 07:54 | 38.43775 | 69.05752 | 14933 ft | 406 kts | 64° |
| 2026-04-22 07:55 | 38.45098 | 69.08936 | 14935 ft | 406 kts | 64° |
| 2026-04-22 07:55 | 38.46416 | 69.12114 | 14936 ft | 405 kts | 64° |
| 2026-04-22 07:55 | 38.47733 | 69.15297 | 14940 ft | 406 kts | 64° |
| 2026-04-22 07:55 | 38.49051 | 69.18477 | 14956 ft | 405 kts | 64° |
| 2026-04-22 07:56 | 38.50369 | 69.21661 | 14946 ft | 405 kts | 65° |
| 2026-04-22 07:56 | 38.51415 | 69.24975 | 14950 ft | 400 kts | 81° |
| 2026-04-22 07:56 | 38.51651 | 69.28458 | 14964 ft | 391 kts | 99° |
| 2026-04-22 07:56 | 38.51092 | 69.31801 | 14971 ft | 383 kts | 117° |
| 2026-04-22 07:57 | 38.49805 | 69.34741 | 15506 ft | 378 kts | 133° |
| 2026-04-22 07:57 | 38.47979 | 69.37087 | 16224 ft | 370 kts | 148° |
| 2026-04-22 07:57 | 38.45890 | 69.39007 | 16908 ft | 371 kts | 150° |
| 2026-04-22 07:57 | 38.43762 | 69.40910 | 17557 ft | 376 kts | 151° |
| 2026-04-22 07:58 | 38.41605 | 69.42820 | 18222 ft | 380 kts | 151° |
| 2026-04-22 07:58 | 38.39420 | 69.44751 | 18750 ft | 385 kts | 151° |
| 2026-04-22 07:58 | 38.37205 | 69.46711 | 19262 ft | 390 kts | 151° |
| 2026-04-22 07:58 | 38.34965 | 69.48696 | 19777 ft | 394 kts | 150° |
| 2026-04-22 07:59 | 38.32707 | 69.50704 | 20318 ft | 397 kts | 150° |
| 2026-04-22 07:59 | 38.30431 | 69.52730 | 20877 ft | 401 kts | 151° |
| 2026-04-22 07:59 | 38.28137 | 69.54776 | 21426 ft | 404 kts | 150° |
| 2026-04-22 07:59 | 38.25829 | 69.56835 | 21948 ft | 407 kts | 150° |
| 2026-04-22 08:00 | 38.23494 | 69.58909 | 22443 ft | 411 kts | 151° |
| 2026-04-22 08:00 | 38.21134 | 69.60995 | 22899 ft | 415 kts | 151° |
| 2026-04-22 08:00 | 38.18749 | 69.63098 | 23296 ft | 420 kts | 151° |
| 2026-04-22 08:00 | 38.16339 | 69.65224 | 23677 ft | 424 kts | 151° |
| 2026-04-22 08:01 | 38.13908 | 69.67373 | 24061 ft | 428 kts | 151° |
| 2026-04-22 08:01 | 38.11456 | 69.69540 | 24445 ft | 430 kts | 151° |
| 2026-04-22 08:01 | 38.08994 | 69.71716 | 24829 ft | 433 kts | 151° |
| 2026-04-22 08:01 | 38.06516 | 69.73902 | 25193 ft | 435 kts | 151° |
| 2026-04-22 08:02 | 38.04022 | 69.76097 | 25562 ft | 438 kts | 151° |
| 2026-04-22 08:02 | 38.01509 | 69.78298 | 25914 ft | 439 kts | 153° |
| 2026-04-22 08:02 | 37.98843 | 69.80143 | 26235 ft | 435 kts | 163° |
| 2026-04-22 08:02 | 37.98286 | 69.80437 | 26297 ft | 434 kts | 165° |
| 2026-04-22 08:03 | 37.96504 | 69.81196 | 26521 ft | 430 kts | 171° |
| 2026-04-22 08:03 | 37.93583 | 69.81992 | 26866 ft | 430 kts | 174° |
| 2026-04-22 08:03 | 37.90639 | 69.82726 | 27214 ft | 432 kts | 174° |
| 2026-04-22 08:03 | 37.87680 | 69.83465 | 27550 ft | 434 kts | 174° |
| 2026-04-22 08:04 | 37.84710 | 69.84210 | 27881 ft | 437 kts | 174° |
| 2026-04-22 08:04 | 37.81718 | 69.84959 | 28199 ft | 439 kts | 174° |
| 2026-04-22 08:04 | 37.78711 | 69.85712 | 28461 ft | 442 kts | 174° |
| 2026-04-22 08:04 | 37.75721 | 69.86463 | 28746 ft | 445 kts | 174° |
| 2026-04-22 08:05 | 37.72675 | 69.87231 | 29010 ft | 449 kts | 174° |
| 2026-04-22 08:05 | 37.69600 | 69.88004 | 29260 ft | 452 kts | 174° |
| 2026-04-22 08:05 | 37.66515 | 69.88849 | 29528 ft | 458 kts | 169° |
| 2026-04-22 08:05 | 37.63508 | 69.90295 | 29790 ft | 468 kts | 159° |
| 2026-04-22 08:06 | 37.60705 | 69.92468 | 30014 ft | 479 kts | 148° |
| 2026-04-22 08:06 | 37.58234 | 69.95328 | 30272 ft | 486 kts | 136° |
| 2026-04-22 08:06 | 37.56094 | 69.98634 | 30610 ft | 486 kts | 133° |
| 2026-04-22 08:06 | 37.53973 | 70.01936 | 30943 ft | 484 kts | 134° |
| 2026-04-22 08:07 | 37.51842 | 70.05214 | 31243 ft | 483 kts | 134° |
| 2026-04-22 08:07 | 37.49709 | 70.08477 | 31517 ft | 483 kts | 134° |
| 2026-04-22 08:07 | 37.47571 | 70.11738 | 31790 ft | 483 kts | 134° |
| 2026-04-22 08:07 | 37.45437 | 70.14996 | 32115 ft | 482 kts | 134° |
| 2026-04-22 08:08 | 37.43308 | 70.18252 | 32407 ft | 481 kts | 134° |
| 2026-04-22 08:08 | 37.41184 | 70.21507 | 32676 ft | 481 kts | 134° |
| 2026-04-22 08:08 | 37.39064 | 70.24762 | 32977 ft | 481 kts | 134° |
| 2026-04-22 08:08 | 37.36945 | 70.28014 | 33285 ft | 481 kts | 134° |
| 2026-04-22 08:09 | 37.34823 | 70.31263 | 33577 ft | 481 kts | 134° |
| 2026-04-22 08:09 | 37.32698 | 70.34505 | 33869 ft | 481 kts | 134° |
| 2026-04-22 08:09 | 37.30569 | 70.37746 | 34127 ft | 481 kts | 134° |
| 2026-04-22 08:09 | 37.28441 | 70.40983 | 34411 ft | 481 kts | 134° |
| 2026-04-22 08:10 | 37.26314 | 70.44217 | 34690 ft | 480 kts | 134° |
| 2026-04-22 08:10 | 37.24189 | 70.47447 | 34977 ft | 479 kts | 134° |
| 2026-04-22 08:10 | 37.22067 | 70.50667 | 35235 ft | 479 kts | 134° |
| 2026-04-22 08:10 | 37.19943 | 70.53889 | 35480 ft | 479 kts | 134° |
| 2026-04-22 08:11 | 37.17821 | 70.57109 | 35689 ft | 480 kts | 134° |
| 2026-04-22 08:11 | 37.15692 | 70.60335 | 35899 ft | 480 kts | 134° |
| 2026-04-22 08:11 | 37.13559 | 70.63564 | 36097 ft | 481 kts | 134° |
| 2026-04-22 08:11 | 37.11429 | 70.66792 | 36337 ft | 481 kts | 134° |
| 2026-04-22 08:12 | 37.09293 | 70.70022 | 36590 ft | 481 kts | 134° |
| 2026-04-22 08:12 | 37.07160 | 70.73239 | 36846 ft | 481 kts | 135° |
| 2026-04-22 08:12 | 37.02883 | 70.79673 | 36918 ft | 480 kts | 135° |
| 2026-04-22 08:13 | 36.98618 | 70.86081 | 36912 ft | 479 kts | 135° |
| 2026-04-22 08:13 | 36.94353 | 70.92486 | 36919 ft | 479 kts | 135° |
| 2026-04-22 08:14 | 36.90085 | 70.98889 | 36923 ft | 480 kts | 135° |
| 2026-04-22 08:14 | 36.85805 | 71.05287 | 36929 ft | 480 kts | 135° |
| 2026-04-22 08:15 | 36.81521 | 71.11684 | 36939 ft | 480 kts | 135° |
| 2026-04-22 08:15 | 36.77254 | 71.18023 | 36972 ft | 480 kts | 135° |
| 2026-04-22 08:16 | 36.72966 | 71.24407 | 36984 ft | 480 kts | 135° |
| 2026-04-22 08:16 | 36.68680 | 71.30779 | 36996 ft | 480 kts | 135° |
| 2026-04-22 08:17 | 36.64383 | 71.37140 | 36999 ft | 480 kts | 135° |
| 2026-04-22 08:17 | 36.60072 | 71.43487 | 37020 ft | 480 kts | 135° |
| 2026-04-22 08:18 | 36.55761 | 71.49834 | 37031 ft | 481 kts | 135° |
| 2026-04-22 08:18 | 36.51451 | 71.56186 | 37069 ft | 481 kts | 135° |
| 2026-04-22 08:19 | 36.47501 | 71.62909 | 37058 ft | 487 kts | 121° |
| 2026-04-22 08:19 | 36.45194 | 71.70850 | 37098 ft | 493 kts | 105° |
| 2026-04-22 08:20 | 36.43625 | 71.79135 | 37106 ft | 493 kts | 105° |
| 2026-04-22 08:20 | 36.42041 | 71.87407 | 37110 ft | 491 kts | 105° |
| 2026-04-22 08:21 | 36.40449 | 71.95670 | 37115 ft | 492 kts | 105° |
| 2026-04-22 08:21 | 36.38852 | 72.03939 | 37151 ft | 494 kts | 105° |
| 2026-04-22 08:22 | 36.37249 | 72.12210 | 37131 ft | 492 kts | 105° |
| 2026-04-22 08:22 | 36.35651 | 72.20465 | 37105 ft | 492 kts | 105° |
| 2026-04-22 08:23 | 36.34047 | 72.28696 | 37107 ft | 490 kts | 105° |
| 2026-04-22 08:23 | 36.32433 | 72.36895 | 37132 ft | 489 kts | 105° |
| 2026-04-22 08:24 | 36.30823 | 72.45079 | 37112 ft | 488 kts | 105° |
| 2026-04-22 08:24 | 36.29217 | 72.53244 | 37120 ft | 487 kts | 105° |
| 2026-04-22 08:25 | 36.27604 | 72.61398 | 37114 ft | 487 kts | 105° |
| 2026-04-22 08:25 | 36.25980 | 72.69531 | 37118 ft | 485 kts | 105° |
| 2026-04-22 08:26 | 36.24636 | 72.76277 | 37149 ft | 486 kts | 105° |
| 2026-04-22 08:26 | 36.23009 | 72.84396 | 37148 ft | 486 kts | 105° |
| 2026-04-22 08:27 | 36.21375 | 72.92496 | 37158 ft | 484 kts | 105° |
| 2026-04-22 08:27 | 36.19740 | 73.00579 | 37169 ft | 483 kts | 105° |
| 2026-04-22 08:28 | 36.18107 | 73.08639 | 37168 ft | 482 kts | 105° |
| 2026-04-22 08:28 | 36.16452 | 73.16740 | 37133 ft | 489 kts | 105° |
| 2026-04-22 08:29 | 36.14773 | 73.24952 | 37132 ft | 494 kts | 105° |
| 2026-04-22 08:29 | 36.13078 | 73.33230 | 37149 ft | 499 kts | 104° |
| 2026-04-22 08:30 | 36.11367 | 73.41571 | 37146 ft | 501 kts | 105° |
| 2026-04-22 08:30 | 36.09643 | 73.49924 | 37147 ft | 502 kts | 104° |
| 2026-04-22 08:31 | 36.07915 | 73.58279 | 37151 ft | 501 kts | 105° |
| 2026-04-22 08:32 | 36.05304 | 73.70788 | 37167 ft | 501 kts | 104° |
| 2026-04-22 08:32 | 36.03557 | 73.79127 | 37159 ft | 501 kts | 104° |
| 2026-04-22 08:33 | 36.01815 | 73.87451 | 37151 ft | 500 kts | 104° |
| 2026-04-22 08:33 | 36.00064 | 73.95771 | 37145 ft | 501 kts | 104° |
| 2026-04-22 08:34 | 35.98296 | 74.04090 | 37135 ft | 501 kts | 104° |
| 2026-04-22 08:34 | 35.96526 | 74.12405 | 37130 ft | 501 kts | 105° |
| 2026-04-22 08:35 | 35.94757 | 74.20692 | 37106 ft | 498 kts | 105° |
| 2026-04-22 08:35 | 35.92991 | 74.28975 | 37105 ft | 500 kts | 104° |
| 2026-04-22 08:36 | 35.91071 | 74.37207 | 37109 ft | 499 kts | 114° |
| 2026-04-22 08:36 | 35.89453 | 74.40975 | 37114 ft | 497 kts | 125° |
| 2026-04-22 08:36 | 35.87387 | 74.44383 | 37118 ft | 496 kts | 131° |
| 2026-04-22 08:37 | 35.82807 | 74.50732 | 37117 ft | 496 kts | 133° |
| 2026-04-22 08:37 | 35.78477 | 74.57289 | 37115 ft | 497 kts | 128° |
| 2026-04-22 08:38 | 35.74456 | 74.64293 | 37127 ft | 497 kts | 125° |
| 2026-04-22 08:38 | 35.70563 | 74.71258 | 37148 ft | 497 kts | 126° |
| 2026-04-22 08:39 | 35.66528 | 74.78229 | 37147 ft | 496 kts | 127° |
| 2026-04-22 08:39 | 35.62497 | 74.85024 | 37182 ft | 495 kts | 127° |
| 2026-04-22 08:40 | 35.58443 | 74.91868 | 37174 ft | 495 kts | 127° |
| 2026-04-22 08:40 | 35.54419 | 74.98728 | 37178 ft | 495 kts | 127° |
| 2026-04-22 08:41 | 35.50382 | 75.05594 | 37209 ft | 496 kts | 127° |
| 2026-04-22 08:41 | 35.46334 | 75.12431 | 37211 ft | 495 kts | 127° |
| 2026-04-22 08:42 | 35.42289 | 75.19276 | 37199 ft | 495 kts | 127° |
| 2026-04-22 08:42 | 35.38245 | 75.26108 | 37207 ft | 496 kts | 127° |
| 2026-04-22 08:43 | 35.34182 | 75.32935 | 37215 ft | 495 kts | 127° |
| 2026-04-22 08:43 | 35.30114 | 75.39755 | 37225 ft | 496 kts | 127° |
| 2026-04-22 08:44 | 35.26052 | 75.46571 | 37223 ft | 495 kts | 127° |
| 2026-04-22 08:44 | 35.21985 | 75.53380 | 37207 ft | 495 kts | 127° |
| 2026-04-22 08:45 | 35.17919 | 75.60170 | 37214 ft | 495 kts | 127° |
| 2026-04-22 08:45 | 35.13849 | 75.66953 | 37188 ft | 495 kts | 127° |
| 2026-04-22 08:46 | 35.09784 | 75.73734 | 37206 ft | 494 kts | 127° |
| 2026-04-22 08:46 | 35.05709 | 75.80496 | 37192 ft | 494 kts | 127° |
| 2026-04-22 08:47 | 35.01628 | 75.87250 | 37193 ft | 494 kts | 127° |
| 2026-04-22 08:47 | 34.97538 | 75.93997 | 37170 ft | 494 kts | 127° |
| 2026-04-22 08:48 | 34.93458 | 76.00746 | 37167 ft | 494 kts | 127° |
| 2026-04-22 08:48 | 34.89377 | 76.07487 | 37147 ft | 493 kts | 127° |
| 2026-04-22 08:49 | 34.85295 | 76.14207 | 37155 ft | 494 kts | 127° |
| 2026-04-22 08:49 | 34.81204 | 76.20925 | 37156 ft | 494 kts | 127° |
| 2026-04-22 08:50 | 34.77108 | 76.27634 | 37132 ft | 494 kts | 127° |
| 2026-04-22 08:50 | 34.73033 | 76.34294 | 37129 ft | 494 kts | 127° |
| 2026-04-22 08:51 | 34.68931 | 76.40999 | 37127 ft | 494 kts | 127° |
| 2026-04-22 08:51 | 34.64823 | 76.47688 | 37110 ft | 494 kts | 127° |
| 2026-04-22 08:52 | 34.60720 | 76.54347 | 36854 ft | 488 kts | 127° |
| 2026-04-22 08:52 | 34.58702 | 76.57619 | 35794 ft | 481 kts | 127° |
| 2026-04-22 08:52 | 34.56697 | 76.60873 | 34328 ft | 482 kts | 127° |
| 2026-04-22 08:52 | 34.54691 | 76.64131 | 32646 ft | 483 kts | 127° |
| 2026-04-22 08:53 | 34.52675 | 76.67398 | 30865 ft | 486 kts | 128° |
| 2026-04-22 08:53 | 34.50641 | 76.70690 | 29062 ft | 487 kts | 128° |
| 2026-04-22 08:53 | 34.48625 | 76.73958 | 27523 ft | 481 kts | 128° |
| 2026-04-22 08:53 | 34.46636 | 76.77175 | 26468 ft | 474 kts | 128° |
| 2026-04-22 08:54 | 34.44694 | 76.80312 | 26245 ft | 453 kts | 128° |
| 2026-04-22 08:54 | 34.42861 | 76.83257 | 26028 ft | 424 kts | 129° |
| 2026-04-22 08:54 | 34.41078 | 76.86011 | 25406 ft | 409 kts | 130° |
| 2026-04-22 08:54 | 34.39314 | 76.88681 | 24602 ft | 403 kts | 131° |
| 2026-04-22 08:55 | 34.37567 | 76.91344 | 23972 ft | 404 kts | 130° |
| 2026-04-22 08:55 | 34.35848 | 76.94018 | 23531 ft | 401 kts | 129° |
| 2026-04-22 08:55 | 34.34161 | 76.96689 | 22994 ft | 398 kts | 128° |
| 2026-04-22 08:55 | 34.32751 | 76.99514 | 22829 ft | 388 kts | 115° |
| 2026-04-22 08:56 | 34.31753 | 77.02494 | 22669 ft | 377 kts | 112° |
| 2026-04-22 08:56 | 34.30813 | 77.05423 | 22335 ft | 371 kts | 112° |
| 2026-04-22 08:56 | 34.29891 | 77.08313 | 21937 ft | 366 kts | 112° |
| 2026-04-22 08:56 | 34.28801 | 77.11057 | 21581 ft | 359 kts | 127° |
| 2026-04-22 08:57 | 34.27129 | 77.13242 | 21075 ft | 354 kts | 143° |
| 2026-04-22 08:57 | 34.25147 | 77.15071 | 20046 ft | 362 kts | 144° |
| 2026-04-22 08:57 | 34.23149 | 77.16930 | 19274 ft | 360 kts | 140° |
| 2026-04-22 08:57 | 34.21374 | 77.18951 | 19038 ft | 341 kts | 137° |
| 2026-04-22 08:58 | 34.19759 | 77.20895 | 18927 ft | 312 kts | 136° |
| 2026-04-22 08:58 | 34.18302 | 77.22657 | 18701 ft | 282 kts | 136° |
| 2026-04-22 08:58 | 34.16959 | 77.24303 | 18111 ft | 271 kts | 136° |
| 2026-04-22 08:58 | 34.15645 | 77.25911 | 17430 ft | 266 kts | 138° |
| 2026-04-22 08:59 | 34.14477 | 77.27613 | 16773 ft | 263 kts | 119° |
| 2026-04-22 08:59 | 34.13845 | 77.29656 | 16170 ft | 258 kts | 108° |
| 2026-04-22 08:59 | 34.13328 | 77.31715 | 15587 ft | 254 kts | 108° |
| 2026-04-22 08:59 | 34.12819 | 77.33750 | 15012 ft | 253 kts | 107° |
| 2026-04-22 09:00 | 34.12318 | 77.35763 | 14668 ft | 248 kts | 107° |
| 2026-04-22 09:00 | 34.11972 | 77.37769 | 14369 ft | 240 kts | 94° |
| 2026-04-22 09:00 | 34.11915 | 77.39755 | 13982 ft | 233 kts | 89° |
| 2026-04-22 09:00 | 34.12001 | 77.41625 | 13862 ft | 212 kts | 83° |
| 2026-04-22 09:01 | 34.12197 | 77.43277 | 13743 ft | 190 kts | 81° |
| 2026-04-22 09:01 | 34.12222 | 77.44882 | 13251 ft | 194 kts | 93° |
| 2026-04-22 09:01 | 34.12015 | 77.46506 | 12328 ft | 202 kts | 99° |
| 2026-04-22 09:01 | 34.11974 | 77.48205 | 11543 ft | 204 kts | 82° |
| 2026-04-22 09:02 | 34.12268 | 77.49818 | 11080 ft | 188 kts | 73° |
| 2026-04-22 09:02 | 34.12633 | 77.51268 | 10730 ft | 174 kts | 70° |
| 2026-04-22 09:02 | 34.13016 | 77.52590 | 10631 ft | 163 kts | 70° |
| 2026-04-22 09:02 | 34.13375 | 77.53841 | 10628 ft | 142 kts | 71° |
| 2026-04-22 09:03 | 34.13633 | 77.54737 | 10694 ft | 86 kts | 70° |
| 2026-04-22 09:03 | 34.13775 | 77.55225 | 10757 ft | 37 kts | 70° |
| 2026-04-22 09:03 | 34.13844 | 77.55458 | 10787 ft | 24 kts | 70° |
| 2026-04-22 09:03 | 34.13887 | 77.55606 | 10806 ft | 13 kts | 70° |
| 2026-04-22 09:04 | 34.13905 | 77.55668 | 10812 ft | 3 kts | 71° |
| 2026-04-22 09:04 | 34.13913 | 77.55695 | 10816 ft | 7 kts | 71° |
| 2026-04-22 09:04 | 34.13945 | 77.55806 | 10830 ft | 21 kts | 71° |
| 2026-04-22 09:04 | 34.13996 | 77.55981 | 10862 ft | 21 kts | 71° |
| 2026-04-22 09:05 | 34.14047 | 77.56072 | 10873 ft | 9 kts | 327° |
| 2026-04-22 09:05 | 34.14049 | 77.55914 | 10858 ft | 31 kts | 270° |
| 2026-04-22 09:05 | 34.14049 | 77.55710 | 10826 ft | 24 kts | 271° |
| 2026-04-22 09:05 | 34.14051 | 77.55519 | 10809 ft | 22 kts | 270° |
| 2026-04-22 09:06 | 34.14086 | 77.55400 | 10809 ft | 13 kts | 329° |
| 2026-04-22 09:06 | 34.14104 | 77.55334 | 10809 ft | 14 kts | 252° |
| 2026-04-22 09:06 | 34.14037 | 77.55153 | 10775 ft | 22 kts | 245° |
| 2026-04-22 09:06 | 34.13975 | 77.54992 | 10753 ft | 23 kts | 245° |
| 2026-04-22 09:07 | 34.13979 | 77.54923 | 10749 ft | 5 kts | 335° |
| 2026-04-22 09:07 | 34.14032 | 77.54880 | 10755 ft | 12 kts | 296° |
| 2026-04-22 09:07 | 34.13979 | 77.54832 | 10743 ft | 7 kts | 158° |
| 2026-04-22 09:07 | 34.13968 | 77.54839 | 10741 ft | 0 kts | 156° |